sensor_id;sensor_type;location;lat;lon;timestamp;temperature;humidity
4759;DHT22;2393;50.560;12.636;2022-11-20T00:01:40;-8.50;99.90
4759;DHT22;2393;50.560;12.636;2022-11-20T00:04:10;-8.50;99.90
4759;DHT22;2393;50.560;12.636;2022-11-20T00:06:38;-8.50;99.90
4759;DHT22;2393;50.560;12.636;2022-11-20T00:09:10;-8.50;99.90
4759;DHT22;2393;50.560;12.636;2022-11-20T00:11:38;-8.50;99.90
4759;DHT22;2393;50.560;12.636;2022-11-20T00:14:11;-8.60;99.90
4759;DHT22;2393;50.560;12.636;2022-11-20T00:16:40;-8.60;99.90
4759;DHT22;2393;50.560;12.636;2022-11-20T00:19:10;-8.60;99.90
4759;DHT22;2393;50.560;12.636;2022-11-20T00:21:38;-8.60;99.90
4759;DHT22;2393;50.560;12.636;2022-11-20T00:24:09;-8.70;99.90
4759;DHT22;2393;50.560;12.636;2022-11-20T00:26:37;-8.70;99.90
4759;DHT22;2393;50.560;12.636;2022-11-20T00:29:08;-8.70;99.90
4759;DHT22;2393;50.560;12.636;2022-11-20T00:31:38;-8.70;99.90
4759;DHT22;2393;50.560;12.636;2022-11-20T00:34:07;-8.70;99.90
4759;DHT22;2393;50.560;12.636;2022-11-20T00:36:35;-8.70;99.90
4759;DHT22;2393;50.560;12.636;2022-11-20T00:39:04;-8.70;99.90
4759;DHT22;2393;50.560;12.636;2022-11-20T00:41:33;-8.70;99.90
4759;DHT22;2393;50.560;12.636;2022-11-20T00:44:02;-8.60;99.90
4759;DHT22;2393;50.560;12.636;2022-11-20T00:46:31;-8.60;99.90
4759;DHT22;2393;50.560;12.636;2022-11-20T00:49:01;-8.60;99.90
4759;DHT22;2393;50.560;12.636;2022-11-20T00:51:30;-8.70;99.90
4759;DHT22;2393;50.560;12.636;2022-11-20T00:53:58;-8.70;99.90
4759;DHT22;2393;50.560;12.636;2022-11-20T00:56:29;-8.70;99.90
4759;DHT22;2393;50.560;12.636;2022-11-20T00:58:59;-8.70;99.90
4759;DHT22;2393;50.560;12.636;2022-11-20T01:01:28;-8.70;99.90
4759;DHT22;2393;50.560;12.636;2022-11-20T01:03:58;-8.70;99.90
4759;DHT22;2393;50.560;12.636;2022-11-20T01:06:31;-8.70;99.90
4759;DHT22;2393;50.560;12.636;2022-11-20T01:09:02;-8.70;99.90
4759;DHT22;2393;50.560;12.636;2022-11-20T01:11:33;-8.70;99.90
4759;DHT22;2393;50.560;12.636;2022-11-20T01:14:03;-8.70;99.90
4759;DHT22;2393;50.560;12.636;2022-11-20T01:16:33;-8.70;99.90
4759;DHT22;2393;50.560;12.636;2022-11-20T01:19:04;-8.70;99.90
4759;DHT22;2393;50.560;12.636;2022-11-20T01:21:35;-8.70;99.90
4759;DHT22;2393;50.560;12.636;2022-11-20T01:24:06;-8.70;99.90
4759;DHT22;2393;50.560;12.636;2022-11-20T01:26:37;-8.70;99.90
4759;DHT22;2393;50.560;12.636;2022-11-20T01:29:06;-8.70;99.90
4759;DHT22;2393;50.560;12.636;2022-11-20T01:31:36;-8.70;99.90
4759;DHT22;2393;50.560;12.636;2022-11-20T01:34:06;-8.70;99.90
4759;DHT22;2393;50.560;12.636;2022-11-20T01:36:37;-8.70;99.90
4759;DHT22;2393;50.560;12.636;2022-11-20T01:39:10;-8.70;99.90
4759;DHT22;2393;50.560;12.636;2022-11-20T01:41:39;-8.70;99.90
4759;DHT22;2393;50.560;12.636;2022-11-20T01:44:46;-8.70;99.90
4759;DHT22;2393;50.560;12.636;2022-11-20T01:47:17;-8.70;99.90
4759;DHT22;2393;50.560;12.636;2022-11-20T01:49:52;-8.80;99.90
4759;DHT22;2393;50.560;12.636;2022-11-20T01:52:29;-8.80;99.90
4759;DHT22;2393;50.560;12.636;2022-11-20T01:55:03;-8.80;99.90
4759;DHT22;2393;50.560;12.636;2022-11-20T01:57:34;-8.90;99.90
4759;DHT22;2393;50.560;12.636;2022-11-20T02:00:07;-8.90;99.90
4759;DHT22;2393;50.560;12.636;2022-11-20T02:02:40;-8.90;99.90
4759;DHT22;2393;50.560;12.636;2022-11-20T02:05:16;-8.90;99.90
4759;DHT22;2393;50.560;12.636;2022-11-20T02:07:48;-9.00;99.90
4759;DHT22;2393;50.560;12.636;2022-11-20T02:10:18;-9.00;99.90
4759;DHT22;2393;50.560;12.636;2022-11-20T02:12:48;-9.00;99.90
4759;DHT22;2393;50.560;12.636;2022-11-20T02:15:35;-9.00;99.90
4759;DHT22;2393;50.560;12.636;2022-11-20T02:18:04;-9.00;99.90
4759;DHT22;2393;50.560;12.636;2022-11-20T02:20:34;-9.00;99.90
4759;DHT22;2393;50.560;12.636;2022-11-20T02:23:05;-9.00;99.90
4759;DHT22;2393;50.560;12.636;2022-11-20T02:25:39;-9.00;99.90
4759;DHT22;2393;50.560;12.636;2022-11-20T02:28:10;-9.10;99.90
4759;DHT22;2393;50.560;12.636;2022-11-20T02:30:39;-9.10;99.90
4759;DHT22;2393;50.560;12.636;2022-11-20T02:33:07;-9.10;99.90
4759;DHT22;2393;50.560;12.636;2022-11-20T02:35:43;-9.10;99.90
4759;DHT22;2393;50.560;12.636;2022-11-20T02:38:13;-9.10;99.90
4759;DHT22;2393;50.560;12.636;2022-11-20T02:40:44;-9.10;99.90
4759;DHT22;2393;50.560;12.636;2022-11-20T02:43:20;-9.00;99.90
4759;DHT22;2393;50.560;12.636;2022-11-20T02:45:49;-9.00;99.90
4759;DHT22;2393;50.560;12.636;2022-11-20T02:48:18;-9.00;99.90
4759;DHT22;2393;50.560;12.636;2022-11-20T02:50:46;-8.90;99.90
4759;DHT22;2393;50.560;12.636;2022-11-20T02:53:15;-8.90;99.90
4759;DHT22;2393;50.560;12.636;2022-11-20T02:55:46;-8.90;99.90
4759;DHT22;2393;50.560;12.636;2022-11-20T02:58:14;-9.00;99.90
4759;DHT22;2393;50.560;12.636;2022-11-20T03:00:43;-9.00;99.90
4759;DHT22;2393;50.560;12.636;2022-11-20T03:03:12;-9.00;99.90
4759;DHT22;2393;50.560;12.636;2022-11-20T03:05:42;-9.00;99.90
4759;DHT22;2393;50.560;12.636;2022-11-20T03:08:11;-9.10;99.90
4759;DHT22;2393;50.560;12.636;2022-11-20T03:10:40;-9.10;99.90
4759;DHT22;2393;50.560;12.636;2022-11-20T03:13:12;-9.10;99.90
4759;DHT22;2393;50.560;12.636;2022-11-20T03:15:41;-9.10;99.90
4759;DHT22;2393;50.560;12.636;2022-11-20T03:18:10;-9.00;99.90
4759;DHT22;2393;50.560;12.636;2022-11-20T03:20:41;-9.00;99.90
4759;DHT22;2393;50.560;12.636;2022-11-20T03:23:09;-9.00;99.90
4759;DHT22;2393;50.560;12.636;2022-11-20T03:25:40;-9.10;99.90
4759;DHT22;2393;50.560;12.636;2022-11-20T03:28:09;-9.10;99.90
4759;DHT22;2393;50.560;12.636;2022-11-20T03:30:40;-9.10;99.90
4759;DHT22;2393;50.560;12.636;2022-11-20T03:33:11;-9.10;99.90
4759;DHT22;2393;50.560;12.636;2022-11-20T03:35:39;-9.20;99.90
4759;DHT22;2393;50.560;12.636;2022-11-20T03:38:08;-9.10;99.90
4759;DHT22;2393;50.560;12.636;2022-11-20T03:40:37;-9.10;99.90
4759;DHT22;2393;50.560;12.636;2022-11-20T03:43:06;-9.20;99.90
4759;DHT22;2393;50.560;12.636;2022-11-20T03:45:36;-9.20;99.90
4759;DHT22;2393;50.560;12.636;2022-11-20T03:48:07;-9.20;99.90
4759;DHT22;2393;50.560;12.636;2022-11-20T03:50:38;-9.20;99.90
4759;DHT22;2393;50.560;12.636;2022-11-20T03:53:07;-9.20;99.90
4759;DHT22;2393;50.560;12.636;2022-11-20T03:55:37;-9.20;99.90
4759;DHT22;2393;50.560;12.636;2022-11-20T03:58:07;-9.10;99.90
4759;DHT22;2393;50.560;12.636;2022-11-20T04:00:37;-9.10;99.90
4759;DHT22;2393;50.560;12.636;2022-11-20T04:03:08;-9.10;99.90
4759;DHT22;2393;50.560;12.636;2022-11-20T04:05:38;-9.10;99.90
4759;DHT22;2393;50.560;12.636;2022-11-20T04:08:07;-9.10;99.90
4759;DHT22;2393;50.560;12.636;2022-11-20T04:10:36;-9.10;99.90
4759;DHT22;2393;50.560;12.636;2022-11-20T04:13:05;-9.10;99.90
4759;DHT22;2393;50.560;12.636;2022-11-20T04:15:37;-9.20;99.90
4759;DHT22;2393;50.560;12.636;2022-11-20T04:18:05;-9.20;99.90
4759;DHT22;2393;50.560;12.636;2022-11-20T04:20:35;-9.30;99.90
4759;DHT22;2393;50.560;12.636;2022-11-20T04:23:04;-9.30;99.90
4759;DHT22;2393;50.560;12.636;2022-11-20T04:25:32;-9.30;99.90
4759;DHT22;2393;50.560;12.636;2022-11-20T04:28:01;-9.40;99.90
4759;DHT22;2393;50.560;12.636;2022-11-20T04:30:30;-9.30;99.90
4759;DHT22;2393;50.560;12.636;2022-11-20T04:33:00;-9.30;99.90
4759;DHT22;2393;50.560;12.636;2022-11-20T04:35:29;-9.40;99.90
4759;DHT22;2393;50.560;12.636;2022-11-20T04:37:58;-9.40;99.90
4759;DHT22;2393;50.560;12.636;2022-11-20T04:40:28;-9.40;99.90
4759;DHT22;2393;50.560;12.636;2022-11-20T04:42:57;-9.40;99.90
4759;DHT22;2393;50.560;12.636;2022-11-20T04:45:26;-9.40;99.90
4759;DHT22;2393;50.560;12.636;2022-11-20T04:47:54;-9.30;99.90
4759;DHT22;2393;50.560;12.636;2022-11-20T04:50:23;-9.30;99.90
4759;DHT22;2393;50.560;12.636;2022-11-20T04:52:52;-9.30;99.90
4759;DHT22;2393;50.560;12.636;2022-11-20T04:55:21;-9.30;99.90
4759;DHT22;2393;50.560;12.636;2022-11-20T04:57:50;-9.30;99.90
4759;DHT22;2393;50.560;12.636;2022-11-20T05:00:19;-9.20;99.90
4759;DHT22;2393;50.560;12.636;2022-11-20T05:02:48;-9.30;99.90
4759;DHT22;2393;50.560;12.636;2022-11-20T05:05:17;-9.20;99.90
4759;DHT22;2393;50.560;12.636;2022-11-20T05:07:46;-9.30;99.90
4759;DHT22;2393;50.560;12.636;2022-11-20T05:10:15;-9.30;99.90
4759;DHT22;2393;50.560;12.636;2022-11-20T05:12:45;-9.40;99.90
4759;DHT22;2393;50.560;12.636;2022-11-20T05:15:14;-9.40;99.90
4759;DHT22;2393;50.560;12.636;2022-11-20T05:17:47;-9.50;99.90
4759;DHT22;2393;50.560;12.636;2022-11-20T05:20:16;-9.50;99.90
4759;DHT22;2393;50.560;12.636;2022-11-20T05:22:45;-9.60;99.90
4759;DHT22;2393;50.560;12.636;2022-11-20T05:25:14;-9.60;99.90
4759;DHT22;2393;50.560;12.636;2022-11-20T05:27:44;-9.70;99.90
4759;DHT22;2393;50.560;12.636;2022-11-20T05:30:13;-9.70;99.90
4759;DHT22;2393;50.560;12.636;2022-11-20T05:32:42;-9.70;99.90
4759;DHT22;2393;50.560;12.636;2022-11-20T05:35:11;-9.60;99.90
4759;DHT22;2393;50.560;12.636;2022-11-20T05:37:40;-9.70;99.90
4759;DHT22;2393;50.560;12.636;2022-11-20T05:40:10;-9.60;99.90
4759;DHT22;2393;50.560;12.636;2022-11-20T05:42:39;-9.70;99.90
4759;DHT22;2393;50.560;12.636;2022-11-20T05:45:12;-9.70;99.90
4759;DHT22;2393;50.560;12.636;2022-11-20T05:47:40;-9.70;99.90
4759;DHT22;2393;50.560;12.636;2022-11-20T05:50:09;-9.70;99.90
4759;DHT22;2393;50.560;12.636;2022-11-20T05:52:38;-9.70;99.90
4759;DHT22;2393;50.560;12.636;2022-11-20T05:55:07;-9.80;99.90
4759;DHT22;2393;50.560;12.636;2022-11-20T05:57:36;-9.80;99.90
4759;DHT22;2393;50.560;12.636;2022-11-20T06:00:07;-9.80;99.90
4759;DHT22;2393;50.560;12.636;2022-11-20T06:02:37;-9.80;99.90
4759;DHT22;2393;50.560;12.636;2022-11-20T06:05:07;-9.80;99.90
4759;DHT22;2393;50.560;12.636;2022-11-20T06:07:36;-9.80;99.90
4759;DHT22;2393;50.560;12.636;2022-11-20T06:10:05;-9.70;99.90
4759;DHT22;2393;50.560;12.636;2022-11-20T06:12:34;-9.70;99.90
4759;DHT22;2393;50.560;12.636;2022-11-20T06:15:03;-9.70;99.90
4759;DHT22;2393;50.560;12.636;2022-11-20T06:17:32;-9.80;99.90
4759;DHT22;2393;50.560;12.636;2022-11-20T06:20:02;-9.80;99.90
4759;DHT22;2393;50.560;12.636;2022-11-20T06:22:32;-9.80;99.90
4759;DHT22;2393;50.560;12.636;2022-11-20T06:25:02;-9.80;99.90
4759;DHT22;2393;50.560;12.636;2022-11-20T06:27:31;-9.80;99.90
4759;DHT22;2393;50.560;12.636;2022-11-20T06:30:01;-9.70;99.90
4759;DHT22;2393;50.560;12.636;2022-11-20T06:32:31;-9.70;99.90
4759;DHT22;2393;50.560;12.636;2022-11-20T06:35:01;-9.70;99.90
4759;DHT22;2393;50.560;12.636;2022-11-20T06:37:31;-9.60;99.90
4759;DHT22;2393;50.560;12.636;2022-11-20T06:40:00;-9.60;99.90
4759;DHT22;2393;50.560;12.636;2022-11-20T06:42:30;-9.60;99.90
4759;DHT22;2393;50.560;12.636;2022-11-20T06:44:59;-9.60;99.90
4759;DHT22;2393;50.560;12.636;2022-11-20T06:47:31;-9.60;99.90
4759;DHT22;2393;50.560;12.636;2022-11-20T06:50:01;-9.60;99.90
4759;DHT22;2393;50.560;12.636;2022-11-20T06:52:30;-9.50;99.90
4759;DHT22;2393;50.560;12.636;2022-11-20T06:54:59;-9.50;99.90
4759;DHT22;2393;50.560;12.636;2022-11-20T06:57:28;-9.40;99.90
4759;DHT22;2393;50.560;12.636;2022-11-20T06:59:56;-9.40;99.90
4759;DHT22;2393;50.560;12.636;2022-11-20T07:02:25;-9.30;99.90
4759;DHT22;2393;50.560;12.636;2022-11-20T07:04:53;-9.30;99.90
4759;DHT22;2393;50.560;12.636;2022-11-20T07:07:23;-9.20;99.90
4759;DHT22;2393;50.560;12.636;2022-11-20T07:09:52;-9.20;99.90
4759;DHT22;2393;50.560;12.636;2022-11-20T07:12:20;-9.10;99.90
4759;DHT22;2393;50.560;12.636;2022-11-20T07:14:49;-9.00;99.90
4759;DHT22;2393;50.560;12.636;2022-11-20T07:17:17;-8.90;99.90
4759;DHT22;2393;50.560;12.636;2022-11-20T07:19:46;-8.90;99.90
4759;DHT22;2393;50.560;12.636;2022-11-20T07:22:14;-8.80;99.90
4759;DHT22;2393;50.560;12.636;2022-11-20T07:24:44;-8.60;99.90
4759;DHT22;2393;50.560;12.636;2022-11-20T07:27:13;-8.50;99.90
4759;DHT22;2393;50.560;12.636;2022-11-20T07:29:41;-8.30;99.90
4759;DHT22;2393;50.560;12.636;2022-11-20T07:32:10;-8.20;99.90
4759;DHT22;2393;50.560;12.636;2022-11-20T07:34:40;-8.00;99.90
4759;DHT22;2393;50.560;12.636;2022-11-20T07:37:16;-8.00;99.90
4759;DHT22;2393;50.560;12.636;2022-11-20T07:39:53;-7.80;99.90
4759;DHT22;2393;50.560;12.636;2022-11-20T07:42:23;-7.60;99.90
4759;DHT22;2393;50.560;12.636;2022-11-20T07:44:56;-7.40;99.90
4759;DHT22;2393;50.560;12.636;2022-11-20T07:47:27;-7.10;99.90
4759;DHT22;2393;50.560;12.636;2022-11-20T07:49:55;-6.70;99.90
4759;DHT22;2393;50.560;12.636;2022-11-20T07:52:24;-6.20;99.90
4759;DHT22;2393;50.560;12.636;2022-11-20T07:54:53;-5.70;99.90
4759;DHT22;2393;50.560;12.636;2022-11-20T07:57:22;-5.30;99.90
4759;DHT22;2393;50.560;12.636;2022-11-20T07:59:54;-4.90;99.90
4759;DHT22;2393;50.560;12.636;2022-11-20T08:02:23;-4.50;99.90
4759;DHT22;2393;50.560;12.636;2022-11-20T08:04:51;-4.30;99.90
4759;DHT22;2393;50.560;12.636;2022-11-20T08:07:21;-4.10;99.90
4759;DHT22;2393;50.560;12.636;2022-11-20T08:09:50;-4.00;99.90
4759;DHT22;2393;50.560;12.636;2022-11-20T08:12:23;-3.90;99.90
4759;DHT22;2393;50.560;12.636;2022-11-20T08:15:09;-3.70;99.90
4759;DHT22;2393;50.560;12.636;2022-11-20T08:17:39;-3.60;99.90
4759;DHT22;2393;50.560;12.636;2022-11-20T08:20:09;-3.40;99.90
4759;DHT22;2393;50.560;12.636;2022-11-20T08:22:38;-3.20;99.90
4759;DHT22;2393;50.560;12.636;2022-11-20T08:25:07;-3.00;99.90
4759;DHT22;2393;50.560;12.636;2022-11-20T08:27:37;-2.70;99.90
4759;DHT22;2393;50.560;12.636;2022-11-20T08:30:09;-2.50;99.90
4759;DHT22;2393;50.560;12.636;2022-11-20T08:32:38;-2.30;99.90
4759;DHT22;2393;50.560;12.636;2022-11-20T08:35:08;-2.20;99.90
4759;DHT22;2393;50.560;12.636;2022-11-20T08:37:36;-2.00;99.90
4759;DHT22;2393;50.560;12.636;2022-11-20T08:40:10;-1.70;99.90
4759;DHT22;2393;50.560;12.636;2022-11-20T08:42:50;-1.60;99.90
4759;DHT22;2393;50.560;12.636;2022-11-20T08:45:20;-1.40;99.90
4759;DHT22;2393;50.560;12.636;2022-11-20T08:47:48;-1.30;99.90
4759;DHT22;2393;50.560;12.636;2022-11-20T08:50:17;-1.20;99.90
4759;DHT22;2393;50.560;12.636;2022-11-20T08:52:46;-1.00;99.90
4759;DHT22;2393;50.560;12.636;2022-11-20T08:55:14;-0.90;99.90
4759;DHT22;2393;50.560;12.636;2022-11-20T08:57:43;-0.80;99.90
4759;DHT22;2393;50.560;12.636;2022-11-20T09:00:18;-0.60;99.90
4759;DHT22;2393;50.560;12.636;2022-11-20T09:02:47;-0.50;99.90
4759;DHT22;2393;50.560;12.636;2022-11-20T09:05:16;-0.20;99.90
4759;DHT22;2393;50.560;12.636;2022-11-20T09:07:45;0.10;99.90
4759;DHT22;2393;50.560;12.636;2022-11-20T09:10:15;0.30;99.90
4759;DHT22;2393;50.560;12.636;2022-11-20T09:12:52;0.60;99.90
4759;DHT22;2393;50.560;12.636;2022-11-20T09:15:24;1.50;99.90
4759;DHT22;2393;50.560;12.636;2022-11-20T09:17:56;2.80;99.90
4759;DHT22;2393;50.560;12.636;2022-11-20T09:20:27;3.60;99.90
4759;DHT22;2393;50.560;12.636;2022-11-20T09:22:57;3.90;99.90
4759;DHT22;2393;50.560;12.636;2022-11-20T09:25:26;4.10;99.90
4759;DHT22;2393;50.560;12.636;2022-11-20T09:27:56;4.30;99.90
4759;DHT22;2393;50.560;12.636;2022-11-20T09:30:27;4.30;99.90
4759;DHT22;2393;50.560;12.636;2022-11-20T09:32:55;4.20;99.90
4759;DHT22;2393;50.560;12.636;2022-11-20T09:35:24;4.00;99.90
4759;DHT22;2393;50.560;12.636;2022-11-20T09:37:54;3.80;99.90
4759;DHT22;2393;50.560;12.636;2022-11-20T09:40:24;3.60;99.90
4759;DHT22;2393;50.560;12.636;2022-11-20T09:42:57;3.50;99.90
4759;DHT22;2393;50.560;12.636;2022-11-20T09:45:39;3.30;99.90
4759;DHT22;2393;50.560;12.636;2022-11-20T09:48:25;3.10;99.90
4759;DHT22;2393;50.560;12.636;2022-11-20T09:51:03;3.00;99.90
4759;DHT22;2393;50.560;12.636;2022-11-20T09:53:46;2.90;99.90
4759;DHT22;2393;50.560;12.636;2022-11-20T09:56:20;2.90;99.90
4759;DHT22;2393;50.560;12.636;2022-11-20T09:58:50;2.80;99.90
4759;DHT22;2393;50.560;12.636;2022-11-20T10:01:23;2.80;99.90
4759;DHT22;2393;50.560;12.636;2022-11-20T10:03:57;2.70;99.90
4759;DHT22;2393;50.560;12.636;2022-11-20T10:06:30;2.50;99.90
4759;DHT22;2393;50.560;12.636;2022-11-20T10:09:08;2.50;99.90
4759;DHT22;2393;50.560;12.636;2022-11-20T10:11:52;2.70;99.90
4759;DHT22;2393;50.560;12.636;2022-11-20T10:14:33;3.10;99.90
4759;DHT22;2393;50.560;12.636;2022-11-20T10:17:15;3.40;99.90
4759;DHT22;2393;50.560;12.636;2022-11-20T10:20:02;3.80;99.90
4759;DHT22;2393;50.560;12.636;2022-11-20T10:22:47;4.40;99.90
4759;DHT22;2393;50.560;12.636;2022-11-20T10:25:19;4.80;99.90
4759;DHT22;2393;50.560;12.636;2022-11-20T10:28:16;5.10;99.90
4759;DHT22;2393;50.560;12.636;2022-11-20T10:30:51;5.20;99.90
4759;DHT22;2393;50.560;12.636;2022-11-20T10:33:24;4.90;99.90
4759;DHT22;2393;50.560;12.636;2022-11-20T10:36:18;4.50;99.90
4759;DHT22;2393;50.560;12.636;2022-11-20T10:38:51;4.10;99.90
4759;DHT22;2393;50.560;12.636;2022-11-20T10:41:24;3.80;99.90
4759;DHT22;2393;50.560;12.636;2022-11-20T10:44:03;3.40;99.90
4759;DHT22;2393;50.560;12.636;2022-11-20T10:46:40;3.20;99.90
4759;DHT22;2393;50.560;12.636;2022-11-20T10:49:14;2.90;99.90
4759;DHT22;2393;50.560;12.636;2022-11-20T10:51:53;2.80;99.90
4759;DHT22;2393;50.560;12.636;2022-11-20T10:54:33;2.70;99.90
4759;DHT22;2393;50.560;12.636;2022-11-20T10:57:13;2.50;99.90
4759;DHT22;2393;50.560;12.636;2022-11-20T11:02:49;2.40;99.90
4759;DHT22;2393;50.560;12.636;2022-11-20T11:05:31;2.40;99.90
4759;DHT22;2393;50.560;12.636;2022-11-20T11:08:01;2.40;99.90
4759;DHT22;2393;50.560;12.636;2022-11-20T11:10:37;2.40;99.90
4759;DHT22;2393;50.560;12.636;2022-11-20T11:13:19;2.30;99.90
4759;DHT22;2393;50.560;12.636;2022-11-20T11:15:47;2.40;99.90
4759;DHT22;2393;50.560;12.636;2022-11-20T11:18:24;2.30;99.90
4759;DHT22;2393;50.560;12.636;2022-11-20T11:20:55;2.40;99.90
4759;DHT22;2393;50.560;12.636;2022-11-20T11:23:32;2.30;99.90
4759;DHT22;2393;50.560;12.636;2022-11-20T11:26:02;2.40;99.90
4759;DHT22;2393;50.560;12.636;2022-11-20T11:28:31;2.30;99.90
4759;DHT22;2393;50.560;12.636;2022-11-20T11:30:59;2.30;99.90
4759;DHT22;2393;50.560;12.636;2022-11-20T11:33:29;2.30;99.90
4759;DHT22;2393;50.560;12.636;2022-11-20T11:36:00;2.30;99.90
4759;DHT22;2393;50.560;12.636;2022-11-20T11:38:34;2.20;99.90
4759;DHT22;2393;50.560;12.636;2022-11-20T11:41:03;2.20;99.90
4759;DHT22;2393;50.560;12.636;2022-11-20T11:43:34;2.20;99.90
4759;DHT22;2393;50.560;12.636;2022-11-20T11:46:27;2.10;99.90
4759;DHT22;2393;50.560;12.636;2022-11-20T11:48:58;2.00;99.90
4759;DHT22;2393;50.560;12.636;2022-11-20T11:51:34;1.90;99.90
4759;DHT22;2393;50.560;12.636;2022-11-20T11:54:14;1.90;99.90
4759;DHT22;2393;50.560;12.636;2022-11-20T11:56:45;1.80;99.90
4759;DHT22;2393;50.560;12.636;2022-11-20T11:59:21;1.70;99.90
4759;DHT22;2393;50.560;12.636;2022-11-20T12:01:54;1.60;99.90
4759;DHT22;2393;50.560;12.636;2022-11-20T12:04:38;1.60;99.90
4759;DHT22;2393;50.560;12.636;2022-11-20T12:07:13;1.60;99.90
4759;DHT22;2393;50.560;12.636;2022-11-20T12:10:04;1.50;99.90
4759;DHT22;2393;50.560;12.636;2022-11-20T12:12:37;1.40;99.90
4759;DHT22;2393;50.560;12.636;2022-11-20T12:15:12;1.50;99.90
4759;DHT22;2393;50.560;12.636;2022-11-20T12:17:41;1.50;99.90
4759;DHT22;2393;50.560;12.636;2022-11-20T12:20:13;1.50;99.90
4759;DHT22;2393;50.560;12.636;2022-11-20T12:22:48;1.50;99.90
4759;DHT22;2393;50.560;12.636;2022-11-20T12:25:22;1.50;99.90
4759;DHT22;2393;50.560;12.636;2022-11-20T12:28:11;1.50;99.90
4759;DHT22;2393;50.560;12.636;2022-11-20T12:30:54;1.40;99.90
4759;DHT22;2393;50.560;12.636;2022-11-20T12:33:49;1.50;99.90
4759;DHT22;2393;50.560;12.636;2022-11-20T12:36:31;1.50;99.90
4759;DHT22;2393;50.560;12.636;2022-11-20T12:39:25;1.40;99.90
4759;DHT22;2393;50.560;12.636;2022-11-20T12:42:25;1.40;99.90
4759;DHT22;2393;50.560;12.636;2022-11-20T12:45:46;1.50;99.90
4759;DHT22;2393;50.560;12.636;2022-11-20T12:51:25;1.40;99.90
4759;DHT22;2393;50.560;12.636;2022-11-20T12:56:56;1.50;99.90
4759;DHT22;2393;50.560;12.636;2022-11-20T13:02:40;1.50;99.90
4759;DHT22;2393;50.560;12.636;2022-11-20T13:05:20;1.60;99.90
4759;DHT22;2393;50.560;12.636;2022-11-20T13:07:52;1.60;99.90
4759;DHT22;2393;50.560;12.636;2022-11-20T13:10:26;1.60;99.90
4759;DHT22;2393;50.560;12.636;2022-11-20T13:13:03;1.70;99.90
4759;DHT22;2393;50.560;12.636;2022-11-20T13:15:43;1.70;99.90
4759;DHT22;2393;50.560;12.636;2022-11-20T13:18:13;1.80;99.90
4759;DHT22;2393;50.560;12.636;2022-11-20T13:20:42;1.80;99.90
4759;DHT22;2393;50.560;12.636;2022-11-20T13:23:22;1.80;99.90
4759;DHT22;2393;50.560;12.636;2022-11-20T13:25:50;1.90;99.90
4759;DHT22;2393;50.560;12.636;2022-11-20T13:28:29;1.90;99.90
4759;DHT22;2393;50.560;12.636;2022-11-20T13:30:58;1.90;99.90
4759;DHT22;2393;50.560;12.636;2022-11-20T13:33:31;1.90;99.90
4759;DHT22;2393;50.560;12.636;2022-11-20T13:36:02;1.90;99.90
4759;DHT22;2393;50.560;12.636;2022-11-20T13:38:42;1.90;99.90
4759;DHT22;2393;50.560;12.636;2022-11-20T13:41:23;1.90;99.90
4759;DHT22;2393;50.560;12.636;2022-11-20T13:44:09;1.90;99.90
4759;DHT22;2393;50.560;12.636;2022-11-20T13:46:41;1.90;99.90
4759;DHT22;2393;50.560;12.636;2022-11-20T13:49:17;1.90;99.90
4759;DHT22;2393;50.560;12.636;2022-11-20T13:51:47;1.80;99.90
4759;DHT22;2393;50.560;12.636;2022-11-20T13:54:44;1.70;99.90
4759;DHT22;2393;50.560;12.636;2022-11-20T13:57:34;1.70;99.90
4759;DHT22;2393;50.560;12.636;2022-11-20T14:00:11;1.50;99.90
4759;DHT22;2393;50.560;12.636;2022-11-20T14:02:40;1.50;99.90
4759;DHT22;2393;50.560;12.636;2022-11-20T14:05:18;1.50;99.90
4759;DHT22;2393;50.560;12.636;2022-11-20T14:07:51;1.50;99.90
4759;DHT22;2393;50.560;12.636;2022-11-20T14:10:20;1.50;99.90
4759;DHT22;2393;50.560;12.636;2022-11-20T14:12:58;1.40;99.90
4759;DHT22;2393;50.560;12.636;2022-11-20T14:15:38;1.40;99.90
4759;DHT22;2393;50.560;12.636;2022-11-20T14:18:13;1.40;99.90
4759;DHT22;2393;50.560;12.636;2022-11-20T14:20:43;1.40;99.90
4759;DHT22;2393;50.560;12.636;2022-11-20T14:23:11;1.50;99.90
4759;DHT22;2393;50.560;12.636;2022-11-20T14:25:42;1.40;99.90
4759;DHT22;2393;50.560;12.636;2022-11-20T14:28:24;1.50;99.90
4759;DHT22;2393;50.560;12.636;2022-11-20T14:30:55;1.40;99.90
4759;DHT22;2393;50.560;12.636;2022-11-20T14:33:26;1.40;99.90
4759;DHT22;2393;50.560;12.636;2022-11-20T14:35:57;1.40;99.90
4759;DHT22;2393;50.560;12.636;2022-11-20T14:38:28;1.40;99.90
4759;DHT22;2393;50.560;12.636;2022-11-20T14:41:06;1.40;99.90
4759;DHT22;2393;50.560;12.636;2022-11-20T14:43:34;1.40;99.90
4759;DHT22;2393;50.560;12.636;2022-11-20T14:46:07;1.30;99.90
4759;DHT22;2393;50.560;12.636;2022-11-20T14:48:39;1.30;99.90
4759;DHT22;2393;50.560;12.636;2022-11-20T14:51:09;1.40;99.90
4759;DHT22;2393;50.560;12.636;2022-11-20T14:53:38;1.30;99.90
4759;DHT22;2393;50.560;12.636;2022-11-20T14:56:08;1.30;99.90
4759;DHT22;2393;50.560;12.636;2022-11-20T14:58:36;1.30;99.90
4759;DHT22;2393;50.560;12.636;2022-11-20T15:01:12;1.30;99.90
4759;DHT22;2393;50.560;12.636;2022-11-20T15:03:41;1.30;99.90
4759;DHT22;2393;50.560;12.636;2022-11-20T15:06:11;1.30;99.90
4759;DHT22;2393;50.560;12.636;2022-11-20T15:08:50;1.30;99.90
4759;DHT22;2393;50.560;12.636;2022-11-20T15:11:23;1.30;99.90
4759;DHT22;2393;50.560;12.636;2022-11-20T15:13:53;1.30;99.90
4759;DHT22;2393;50.560;12.636;2022-11-20T15:16:24;1.30;99.90
4759;DHT22;2393;50.560;12.636;2022-11-20T15:18:54;1.30;99.90
4759;DHT22;2393;50.560;12.636;2022-11-20T15:21:23;1.30;99.90
4759;DHT22;2393;50.560;12.636;2022-11-20T15:23:51;1.30;99.90
4759;DHT22;2393;50.560;12.636;2022-11-20T15:26:24;1.30;99.90
4759;DHT22;2393;50.560;12.636;2022-11-20T15:28:53;1.30;99.90
4759;DHT22;2393;50.560;12.636;2022-11-20T15:31:23;1.20;99.90
4759;DHT22;2393;50.560;12.636;2022-11-20T15:33:51;1.20;99.90
4759;DHT22;2393;50.560;12.636;2022-11-20T15:36:20;1.20;99.90
4759;DHT22;2393;50.560;12.636;2022-11-20T15:38:48;1.20;99.90
4759;DHT22;2393;50.560;12.636;2022-11-20T15:41:17;1.20;99.90
4759;DHT22;2393;50.560;12.636;2022-11-20T15:43:45;1.10;99.90
4759;DHT22;2393;50.560;12.636;2022-11-20T15:46:15;1.10;99.90
4759;DHT22;2393;50.560;12.636;2022-11-20T15:48:47;1.10;99.90
4759;DHT22;2393;50.560;12.636;2022-11-20T15:51:24;1.10;99.90
4759;DHT22;2393;50.560;12.636;2022-11-20T15:53:54;1.00;99.90
4759;DHT22;2393;50.560;12.636;2022-11-20T15:56:24;1.00;99.90
4759;DHT22;2393;50.560;12.636;2022-11-20T15:58:52;1.00;99.90
4759;DHT22;2393;50.560;12.636;2022-11-20T16:01:22;1.00;99.90
4759;DHT22;2393;50.560;12.636;2022-11-20T16:03:51;1.00;99.90
4759;DHT22;2393;50.560;12.636;2022-11-20T16:06:20;0.90;99.90
4759;DHT22;2393;50.560;12.636;2022-11-20T16:08:48;0.90;99.90
4759;DHT22;2393;50.560;12.636;2022-11-20T16:11:17;0.90;99.90
4759;DHT22;2393;50.560;12.636;2022-11-20T16:13:46;0.90;99.90
4759;DHT22;2393;50.560;12.636;2022-11-20T16:16:33;0.90;99.90
4759;DHT22;2393;50.560;12.636;2022-11-20T16:19:03;0.90;99.90
4759;DHT22;2393;50.560;12.636;2022-11-20T16:21:32;0.90;99.90
4759;DHT22;2393;50.560;12.636;2022-11-20T16:24:04;0.80;99.90
4759;DHT22;2393;50.560;12.636;2022-11-20T16:26:33;0.80;99.90
4759;DHT22;2393;50.560;12.636;2022-11-20T16:29:04;0.80;99.90
4759;DHT22;2393;50.560;12.636;2022-11-20T16:31:32;0.80;99.90
4759;DHT22;2393;50.560;12.636;2022-11-20T16:34:04;0.80;99.90
4759;DHT22;2393;50.560;12.636;2022-11-20T16:36:39;0.70;99.90